createdAt,value
2018-02-08T00:00:57.046Z,-5.60
2018-02-08T00:03:24.509Z,-5.60
2018-02-08T00:05:52.785Z,-5.60
2018-02-08T00:08:21.018Z,-5.60
2018-02-08T00:10:48.479Z,-5.60
2018-02-08T00:13:15.964Z,-5.60
2018-02-08T00:15:43.429Z,-5.60
2018-02-08T00:18:10.896Z,-5.60
2018-02-08T00:20:39.126Z,-5.60
2018-02-08T00:23:06.599Z,-5.70
2018-02-08T00:25:34.057Z,-5.60
2018-02-08T00:28:01.529Z,-5.60
2018-02-08T00:30:28.999Z,-5.60
2018-02-08T00:32:56.478Z,-5.60
2018-02-08T00:35:23.958Z,-5.70
2018-02-08T00:37:51.449Z,-5.70
2018-02-08T00:40:18.911Z,-5.70
2018-02-08T00:42:46.392Z,-5.70
2018-02-08T00:45:13.858Z,-5.70
2018-02-08T00:47:41.333Z,-5.70
2018-02-08T00:50:08.799Z,-5.70
2018-02-08T00:52:36.274Z,-5.70
2018-02-08T00:55:03.754Z,-5.70
2018-02-08T00:57:32.007Z,-5.70
2018-02-08T00:59:59.474Z,-5.70
2018-02-08T01:02:26.929Z,-5.70
2018-02-08T01:04:54.421Z,-5.70
2018-02-08T01:07:21.881Z,-5.70
2018-02-08T01:09:49.361Z,-5.70
2018-02-08T01:12:16.821Z,-5.70
2018-02-08T01:14:44.303Z,-5.70
2018-02-08T01:17:11.781Z,-5.70
2018-02-08T01:19:39.253Z,-5.70
2018-02-08T01:22:06.720Z,-5.70
2018-02-08T01:24:34.210Z,-5.70
2018-02-08T01:27:02.429Z,-5.70
2018-02-08T01:29:29.925Z,-5.70
2018-02-08T01:31:57.400Z,-5.70
2018-02-08T01:34:25.634Z,-5.70
2018-02-08T01:36:53.101Z,-5.70
2018-02-08T01:39:20.591Z,-5.70
2018-02-08T01:41:48.841Z,-5.70
2018-02-08T01:44:16.303Z,-5.70
2018-02-08T01:46:43.784Z,-5.70
2018-02-08T01:49:11.276Z,-5.70
2018-02-08T01:51:39.525Z,-5.80
2018-02-08T01:54:07.006Z,-5.90
2018-02-08T01:56:34.487Z,-5.90
2018-02-08T01:59:01.978Z,-6.00
2018-02-08T02:01:29.449Z,-6.00
2018-02-08T02:03:57.697Z,-6.00
2018-02-08T02:06:25.159Z,-6.00
2018-02-08T02:08:52.637Z,-6.00
2018-02-08T02:11:20.112Z,-6.10
2018-02-08T02:13:47.562Z,-6.10
2018-02-08T02:16:15.798Z,-6.10
2018-02-08T02:18:43.279Z,-6.20
2018-02-08T02:21:10.749Z,-6.20
2018-02-08T02:23:38.988Z,-6.20
2018-02-08T02:26:06.468Z,-6.30
2018-02-08T02:28:33.948Z,-6.30
2018-02-08T02:31:01.451Z,-6.30
2018-02-08T02:33:28.939Z,-6.30
2018-02-08T02:35:56.455Z,-6.40
2018-02-08T02:38:24.679Z,-6.40
2018-02-08T02:40:52.152Z,-6.40
2018-02-08T02:43:19.626Z,-6.40
2018-02-08T02:45:47.109Z,-6.40
2018-02-08T02:48:14.582Z,-6.50
2018-02-08T02:50:42.053Z,-6.50
2018-02-08T02:53:09.539Z,-6.50
2018-02-08T02:55:37.782Z,-6.60
2018-02-08T02:58:05.268Z,-6.60
2018-02-08T03:00:32.743Z,-6.60
2018-02-08T03:03:00.968Z,-6.70
2018-02-08T03:05:28.445Z,-6.70
2018-02-08T03:07:55.912Z,-6.60
2018-02-08T03:10:23.394Z,-6.60
2018-02-08T03:12:50.869Z,-6.60
2018-02-08T03:15:18.362Z,-6.60
2018-02-08T03:17:45.824Z,-6.70
2018-02-08T03:20:13.352Z,-6.60
2018-02-08T03:22:40.819Z,-6.70
2018-02-08T03:25:08.306Z,-6.60
2018-02-08T03:27:35.789Z,-6.60
2018-02-08T03:30:03.259Z,-6.60
2018-02-08T03:32:31.489Z,-6.70
2018-02-08T03:34:58.957Z,-6.70
2018-02-08T03:37:26.430Z,-6.70
2018-02-08T03:39:53.891Z,-6.70
2018-02-08T03:42:21.360Z,-6.70
2018-02-08T03:44:49.595Z,-6.70
2018-02-08T03:47:17.092Z,-6.70
2018-02-08T03:49:45.313Z,-6.70
2018-02-08T03:52:12.782Z,-6.70
2018-02-08T03:54:40.244Z,-6.70
2018-02-08T03:57:07.712Z,-6.70
2018-02-08T03:59:35.189Z,-6.70
2018-02-08T04:02:02.673Z,-6.70
2018-02-08T04:04:30.148Z,-6.70
2018-02-08T04:06:57.635Z,-6.70
2018-02-08T04:09:25.088Z,-6.70
2018-02-08T04:11:52.555Z,-6.70
2018-02-08T04:14:20.005Z,-6.80
2018-02-08T04:16:47.500Z,-6.80
2018-02-08T04:19:15.732Z,-6.80
2018-02-08T04:21:43.195Z,-6.80
2018-02-08T04:24:10.666Z,-6.80
2018-02-08T04:26:38.160Z,-6.80
2018-02-08T04:29:06.394Z,-6.80
2018-02-08T04:31:33.868Z,-6.80
2018-02-08T04:34:01.346Z,-6.80
2018-02-08T04:36:29.566Z,-6.80
2018-02-08T04:39:09.525Z,-6.80
2018-02-08T04:41:48.915Z,-6.80
2018-02-08T04:44:28.981Z,-6.80
2018-02-08T04:47:07.369Z,-6.80
2018-02-08T04:49:35.606Z,-6.80
2018-02-08T04:52:03.091Z,-6.80
2018-02-08T04:54:30.557Z,-6.80
2018-02-08T04:56:58.022Z,-6.70
2018-02-08T04:59:28.159Z,-6.80
2018-02-08T05:01:57.241Z,-6.80
2018-02-08T05:04:24.725Z,-6.80
2018-02-08T05:06:52.195Z,-6.80
2018-02-08T05:09:19.677Z,-6.80
2018-02-08T05:11:47.140Z,-6.80
2018-02-08T05:14:14.614Z,-6.80
2018-02-08T05:16:42.088Z,-6.80
2018-02-08T05:19:09.562Z,-6.80
2018-02-08T05:21:37.793Z,-6.80
2018-02-08T05:24:05.298Z,-6.80
2018-02-08T05:26:33.536Z,-6.80
2018-02-08T05:29:01.030Z,-6.90
2018-02-08T05:31:29.255Z,-6.80
2018-02-08T05:33:56.720Z,-6.90
2018-02-08T05:36:24.183Z,-6.80
2018-02-08T05:38:51.658Z,-6.80
2018-02-08T05:41:19.145Z,-6.80
2018-02-08T05:43:47.382Z,-6.80
2018-02-08T05:46:14.862Z,-6.90
2018-02-08T05:48:43.095Z,-6.90
2018-02-08T05:51:10.585Z,-6.90
2018-02-08T05:53:38.051Z,-6.80
2018-02-08T05:56:06.291Z,-6.80
2018-02-08T05:58:33.789Z,-6.90
2018-02-08T06:01:02.034Z,-6.90
2018-02-08T06:03:34.562Z,-6.90
2018-02-08T06:06:02.033Z,-6.90
2018-02-08T06:08:29.494Z,-6.90
2018-02-08T06:10:56.964Z,-6.90
2018-02-08T06:13:24.459Z,-6.90
2018-02-08T06:15:52.014Z,-6.90
2018-02-08T06:18:19.469Z,-6.90
2018-02-08T06:21:08.544Z,-6.90
2018-02-08T06:23:36.008Z,-6.90
2018-02-08T06:26:03.490Z,-6.90
2018-02-08T06:28:30.948Z,-6.90
2018-02-08T06:30:58.412Z,-6.90
2018-02-08T06:33:29.569Z,-6.90
2018-02-08T06:35:57.036Z,-6.90
2018-02-08T06:38:24.507Z,-6.90
2018-02-08T06:40:51.986Z,-6.90
2018-02-08T06:43:19.451Z,-6.90
2018-02-08T06:45:46.922Z,-6.90
2018-02-08T06:48:15.174Z,-6.90
2018-02-08T06:50:42.637Z,-7.00
2018-02-08T06:53:10.112Z,-6.90
2018-02-08T06:55:38.356Z,-6.90
2018-02-08T06:58:05.822Z,-6.90
2018-02-08T07:00:38.364Z,-6.90
2018-02-08T07:03:09.223Z,-6.90
2018-02-08T07:05:36.680Z,-6.90
2018-02-08T07:08:10.721Z,-6.90
2018-02-08T07:13:32.340Z,-6.90
2018-02-08T07:15:59.801Z,-6.90
2018-02-08T07:18:27.282Z,-6.80
2018-02-08T07:20:54.750Z,-6.80
2018-02-08T07:23:23.048Z,-6.80
2018-02-08T07:28:47.199Z,-6.80
2018-02-08T07:31:14.653Z,-6.70
2018-02-08T07:33:42.126Z,-6.70
2018-02-08T07:36:09.591Z,-6.70
2018-02-08T07:38:37.064Z,-6.70
2018-02-08T07:41:05.298Z,-6.60
2018-02-08T07:43:32.772Z,-6.60
2018-02-08T07:46:00.292Z,-6.60
2018-02-08T07:48:28.503Z,-6.50
2018-02-08T07:50:55.961Z,-6.50
2018-02-08T07:53:23.445Z,-6.40
2018-02-08T07:55:51.675Z,-6.30
2018-02-08T07:58:19.141Z,-6.40
2018-02-08T08:00:47.078Z,-6.30
2018-02-08T08:03:14.562Z,-6.30
2018-02-08T08:05:42.026Z,-6.30
2018-02-08T08:08:09.492Z,-6.20
2018-02-08T08:10:36.973Z,-6.20
2018-02-08T08:13:04.456Z,-6.10
2018-02-08T08:15:31.919Z,-6.10
2018-02-08T08:17:59.394Z,-6.10
2018-02-08T08:20:26.870Z,-6.00
2018-02-08T08:22:54.348Z,-6.00
2018-02-08T08:25:21.817Z,-6.00
2018-02-08T08:27:49.297Z,-5.90
2018-02-08T08:30:17.555Z,-5.80
2018-02-08T08:32:45.057Z,-5.80
2018-02-08T08:35:12.511Z,-5.80
2018-02-08T08:37:39.990Z,-5.70
2018-02-08T08:40:07.456Z,-5.60
2018-02-08T08:42:34.958Z,-5.60
2018-02-08T08:45:03.197Z,-5.50
2018-02-08T08:47:30.653Z,-5.50
2018-02-08T08:49:58.123Z,-5.40
2018-02-08T08:52:25.593Z,-5.40
2018-02-08T08:54:53.827Z,-5.30
2018-02-08T08:57:21.301Z,-5.30
2018-02-08T08:59:48.789Z,-5.30
2018-02-08T09:02:16.269Z,-5.20
2018-02-08T09:04:43.723Z,-5.20
2018-02-08T09:07:11.218Z,-5.10
2018-02-08T09:09:38.665Z,-5.10
2018-02-08T09:12:06.120Z,-5.00
2018-02-08T09:14:33.599Z,-5.00
2018-02-08T09:17:01.070Z,-4.90
2018-02-08T09:19:28.547Z,-4.90
2018-02-08T09:21:56.020Z,-4.90
2018-02-08T09:24:24.267Z,-4.70
2018-02-08T09:26:51.743Z,-4.80
2018-02-08T09:29:19.253Z,-4.70
2018-02-08T09:31:46.712Z,-4.60
2018-02-08T09:34:14.217Z,-4.50
2018-02-08T09:36:41.680Z,-4.50
2018-02-08T09:39:09.936Z,-4.40
2018-02-08T09:41:37.410Z,-4.40
2018-02-08T09:44:04.881Z,-4.30
2018-02-08T09:46:33.153Z,-4.20
2018-02-08T09:49:00.605Z,-4.20
2018-02-08T09:51:28.839Z,-4.10
2018-02-08T09:53:56.317Z,-4.10
2018-02-08T09:56:23.784Z,-4.00
2018-02-08T09:58:51.248Z,-3.90
2018-02-08T10:01:19.501Z,-3.80
2018-02-08T10:03:46.992Z,-3.80
2018-02-08T10:06:15.244Z,-3.70
2018-02-08T10:08:42.726Z,-3.70
2018-02-08T10:11:10.962Z,-3.60
2018-02-08T10:13:38.444Z,-3.60
2018-02-08T10:16:05.921Z,-3.50
2018-02-08T10:18:34.178Z,-3.40
2018-02-08T10:21:01.652Z,-3.40
2018-02-08T10:23:29.132Z,-3.30
2018-02-08T10:25:57.367Z,-3.20
2018-02-08T10:28:24.841Z,-3.20
2018-02-08T10:30:52.327Z,-3.20
2018-02-08T10:33:20.552Z,-3.10
2018-02-08T10:35:48.019Z,-3.10
2018-02-08T10:38:15.475Z,-3.00
2018-02-08T10:40:42.952Z,-3.00
2018-02-08T10:43:11.206Z,-2.80
2018-02-08T10:45:38.676Z,-2.80
2018-02-08T10:48:06.164Z,-2.80
2018-02-08T10:50:34.391Z,-2.70
2018-02-08T10:53:01.869Z,-2.70
2018-02-08T10:55:29.337Z,-2.60
2018-02-08T10:57:57.569Z,-2.50
2018-02-08T11:00:25.125Z,-2.50
2018-02-08T11:02:52.620Z,-2.50
2018-02-08T11:05:20.080Z,-2.40
2018-02-08T11:07:47.573Z,-2.40
2018-02-08T11:10:15.045Z,-2.30
2018-02-08T11:12:42.521Z,-2.30
2018-02-08T11:15:10.014Z,-2.30
2018-02-08T11:17:37.492Z,-2.20
2018-02-08T11:20:05.749Z,-2.10
2018-02-08T11:22:33.278Z,-2.10
2018-02-08T11:25:01.464Z,-2.00
2018-02-08T11:27:28.921Z,-2.00
2018-02-08T11:29:56.412Z,-2.00
2018-02-08T11:32:24.660Z,-1.90
2018-02-08T11:34:52.124Z,-1.90
2018-02-08T11:37:19.592Z,-1.80
2018-02-08T11:39:47.065Z,-1.80
2018-02-08T11:42:14.537Z,-1.70
2018-02-08T11:44:42.030Z,-1.70
2018-02-08T11:47:09.509Z,-1.70
2018-02-08T11:49:36.998Z,-1.60
2018-02-08T11:52:05.258Z,-1.50
2018-02-08T11:54:32.741Z,-1.60
2018-02-08T11:57:00.979Z,-1.50
2018-02-08T11:59:28.465Z,-1.50
2018-02-08T12:01:56.709Z,-1.40
2018-02-08T12:04:24.188Z,-1.40
2018-02-08T12:06:51.677Z,-1.30
2018-02-08T12:09:19.155Z,-1.30
2018-02-08T12:11:46.625Z,-1.20
2018-02-08T12:14:14.108Z,-1.20
2018-02-08T12:16:41.592Z,-1.10
2018-02-08T12:19:09.834Z,-1.00
2018-02-08T12:21:37.307Z,-1.10
2018-02-08T12:24:04.774Z,-1.00
2018-02-08T12:26:33.019Z,-0.90
2018-02-08T12:29:00.488Z,-0.90
2018-02-08T12:31:27.958Z,-0.80
2018-02-08T12:33:55.443Z,-0.80
2018-02-08T12:36:22.914Z,-0.80
2018-02-08T12:38:50.401Z,-0.80
2018-02-08T12:41:17.862Z,-0.70
2018-02-08T12:43:45.341Z,-0.70
2018-02-08T12:46:12.810Z,-0.70
2018-02-08T12:48:40.297Z,-0.70
2018-02-08T12:51:07.760Z,-0.60
2018-02-08T12:53:35.245Z,-0.60
2018-02-08T12:56:02.714Z,-0.60
2018-02-08T12:58:30.200Z,-0.50
2018-02-08T13:00:57.955Z,-0.50
2018-02-08T13:03:25.440Z,-0.50
2018-02-08T13:05:53.728Z,-0.40
2018-02-08T13:08:21.208Z,-0.50
2018-02-08T13:10:48.665Z,-0.40
2018-02-08T13:13:16.141Z,-0.40
2018-02-08T13:15:43.614Z,-0.40
2018-02-08T13:18:11.102Z,-0.40
2018-02-08T13:20:38.572Z,-0.30
2018-02-08T13:23:06.061Z,-0.30
2018-02-08T13:25:33.538Z,-0.30
2018-02-08T13:28:01.005Z,-0.30
2018-02-08T13:30:28.495Z,-0.30
2018-02-08T13:32:56.722Z,-0.20
2018-02-08T13:35:24.189Z,-0.30
2018-02-08T13:37:51.657Z,-0.20
2018-02-08T13:40:22.954Z,-0.20
2018-02-08T13:42:50.426Z,-0.20
2018-02-08T13:45:17.907Z,-0.20
2018-02-08T13:51:03.982Z,-0.10
2018-02-08T13:53:37.206Z,-0.10
2018-02-08T13:56:04.682Z,-0.10
2018-02-08T13:58:37.797Z,0.00
2018-02-08T14:01:06.053Z,0.00
2018-02-08T14:03:33.531Z,0.00
2018-02-08T14:06:00.994Z,0.10
2018-02-08T14:08:28.477Z,0.10
2018-02-08T14:10:55.942Z,0.10
2018-02-08T14:13:23.414Z,0.10
2018-02-08T14:15:50.899Z,0.20
2018-02-08T14:18:18.381Z,0.20
2018-02-08T14:20:45.855Z,0.20
2018-02-08T14:23:14.093Z,0.20
2018-02-08T14:25:41.574Z,0.20
2018-02-08T14:28:09.039Z,0.20
2018-02-08T14:30:36.505Z,0.20
2018-02-08T14:33:03.974Z,0.30
2018-02-08T14:35:31.449Z,0.30
2018-02-08T14:37:58.920Z,0.30
2018-02-08T14:40:26.394Z,0.30
2018-02-08T14:42:53.880Z,0.30
2018-02-08T14:45:21.948Z,0.30
2018-02-08T14:47:49.413Z,0.30
2018-02-08T14:50:16.894Z,0.30
2018-02-08T14:52:44.357Z,0.30
2018-02-08T14:55:11.808Z,0.30
2018-02-08T14:57:39.290Z,0.30
2018-02-08T15:00:06.774Z,0.30
2018-02-08T15:02:34.235Z,0.30
2018-02-08T15:05:01.713Z,0.30
2018-02-08T15:07:29.178Z,0.30
2018-02-08T15:09:56.665Z,0.30
2018-02-08T15:12:24.141Z,0.30
2018-02-08T15:14:51.631Z,0.30
2018-02-08T15:17:19.107Z,0.30
2018-02-08T15:19:46.578Z,0.30
2018-02-08T15:22:14.823Z,0.20
2018-02-08T15:24:42.414Z,0.20
2018-02-08T15:27:09.974Z,0.20
2018-02-08T15:29:38.213Z,0.10
2018-02-08T15:32:05.679Z,0.10
2018-02-08T15:34:33.156Z,0.10
2018-02-08T15:37:00.621Z,0.10
2018-02-08T15:39:28.853Z,0.00
2018-02-08T15:41:56.305Z,0.00
2018-02-08T15:44:23.789Z,0.00
2018-02-08T15:46:51.263Z,0.00
2018-02-08T15:49:19.052Z,-0.10
2018-02-08T15:51:46.570Z,-0.10
2018-02-08T15:54:14.046Z,-0.10
2018-02-08T15:56:41.533Z,-0.20
2018-02-08T15:59:09.018Z,-0.20
2018-02-08T16:01:36.499Z,-0.20
2018-02-08T16:04:03.986Z,-0.30
2018-02-08T16:06:31.723Z,-0.30
2018-02-08T16:11:49.598Z,-0.40
2018-02-08T16:14:17.074Z,-0.40
2018-02-08T16:16:45.300Z,-0.50
2018-02-08T16:19:12.766Z,-0.50
2018-02-08T16:21:40.248Z,-0.60
2018-02-08T16:24:07.730Z,-0.60
2018-02-08T16:26:35.936Z,-0.60
2018-02-08T16:29:03.409Z,-0.70
2018-02-08T16:31:30.882Z,-0.70
2018-02-08T16:33:58.360Z,-0.70
2018-02-08T16:36:26.584Z,-0.80
2018-02-08T16:38:54.041Z,-0.80
2018-02-08T16:41:21.521Z,-0.80
2018-02-08T16:43:49.007Z,-0.90
2018-02-08T16:46:17.241Z,-1.00
2018-02-08T16:48:44.743Z,-1.00
2018-02-08T16:51:12.974Z,-1.10
2018-02-08T16:53:40.435Z,-1.10
2018-02-08T16:56:07.913Z,-1.10
2018-02-08T16:58:35.357Z,-1.10
2018-02-08T17:01:02.828Z,-1.20
2018-02-08T17:03:30.287Z,-1.20
2018-02-08T17:05:57.749Z,-1.20
2018-02-08T17:08:25.994Z,-1.20
2018-02-08T17:10:53.474Z,-1.30
2018-02-08T17:13:21.487Z,-1.30
2018-02-08T17:15:53.215Z,-1.30
2018-02-08T17:18:20.686Z,-1.30
2018-02-08T17:20:49.843Z,-1.40
2018-02-08T17:23:17.309Z,-1.40
2018-02-08T17:25:44.797Z,-1.40
2018-02-08T17:28:12.288Z,-1.40
2018-02-08T17:30:39.808Z,-1.40
2018-02-08T17:33:07.294Z,-1.40
2018-02-08T17:35:35.583Z,-1.50
2018-02-08T17:38:03.095Z,-1.50
2018-02-08T17:40:30.576Z,-1.50
2018-02-08T17:42:58.848Z,-1.60
2018-02-08T17:45:26.295Z,-1.60
2018-02-08T17:47:53.763Z,-1.60
2018-02-08T17:50:21.241Z,-1.70
2018-02-08T17:52:48.720Z,-1.70
2018-02-08T17:55:16.218Z,-1.80
2018-02-08T17:57:43.693Z,-1.80
2018-02-08T18:00:11.923Z,-1.80
2018-02-08T18:02:39.392Z,-1.80
2018-02-08T18:05:06.941Z,-1.80
2018-02-08T18:07:34.423Z,-1.80
2018-02-08T18:10:01.918Z,-1.80
2018-02-08T18:12:30.174Z,-1.90
2018-02-08T18:14:57.641Z,-1.90
2018-02-08T18:17:25.139Z,-2.00
2018-02-08T18:19:52.888Z,-2.00
2018-02-08T18:22:21.214Z,-2.10
2018-02-08T18:24:48.672Z,-2.10
2018-02-08T18:27:16.141Z,-2.10
2018-02-08T18:29:45.597Z,-2.20
2018-02-08T18:32:13.812Z,-2.20
2018-02-08T18:34:41.282Z,-2.20
2018-02-08T18:37:10.717Z,-2.20
2018-02-08T18:39:38.187Z,-2.20
2018-02-08T18:42:05.660Z,-2.20
2018-02-08T18:44:33.131Z,-2.30
2018-02-08T18:47:00.580Z,-2.30
2018-02-08T18:49:28.056Z,-2.40
2018-02-08T18:51:55.549Z,-2.40
2018-02-08T18:54:23.784Z,-2.40
2018-02-08T18:56:51.252Z,-2.50
2018-02-08T18:59:18.728Z,-2.50
2018-02-08T19:01:46.193Z,-2.50
2018-02-08T19:04:13.663Z,-2.60
2018-02-08T19:06:41.893Z,-2.60
2018-02-08T19:09:09.367Z,-2.60
2018-02-08T19:11:36.853Z,-2.70
2018-02-08T19:14:05.127Z,-2.70
2018-02-08T19:16:33.354Z,-2.80
2018-02-08T19:19:00.862Z,-2.80
2018-02-08T19:21:28.321Z,-2.90
2018-02-08T19:23:56.559Z,-2.90
2018-02-08T19:26:24.021Z,-3.00
2018-02-08T19:28:51.507Z,-3.00
2018-02-08T19:31:18.964Z,-3.00
2018-02-08T19:33:47.189Z,-3.10
2018-02-08T19:36:14.664Z,-3.10
2018-02-08T19:38:42.152Z,-3.10
2018-02-08T19:41:09.616Z,-3.20
2018-02-08T19:43:37.847Z,-3.20
2018-02-08T19:46:05.316Z,-3.20
2018-02-08T19:48:32.799Z,-3.20
2018-02-08T19:51:00.268Z,-3.30
2018-02-08T19:53:28.500Z,-3.30
2018-02-08T19:55:56.017Z,-3.30
2018-02-08T19:58:23.494Z,-3.30
2018-02-08T20:00:50.960Z,-3.30
2018-02-08T20:06:17.350Z,-3.40
2018-02-08T20:08:44.821Z,-3.40
2018-02-08T20:16:54.269Z,-3.50
2018-02-08T20:19:21.729Z,-3.50
2018-02-08T20:21:49.224Z,-3.60
2018-02-08T20:30:05.993Z,-3.80
2018-02-08T20:32:33.464Z,-3.80
2018-02-08T20:35:00.951Z,-3.80
2018-02-08T20:37:28.432Z,-3.80
2018-02-08T20:40:07.217Z,-3.90
2018-02-08T20:42:41.644Z,-3.90
2018-02-08T20:45:09.237Z,-3.90
2018-02-08T20:47:37.604Z,-4.00
2018-02-08T20:50:05.078Z,-4.00
2018-02-08T20:52:32.554Z,-4.00
2018-02-08T20:55:00.780Z,-4.10
2018-02-08T20:57:28.254Z,-4.10
2018-02-08T20:59:55.747Z,-4.10
2018-02-08T21:02:23.986Z,-4.20
2018-02-08T21:04:51.469Z,-4.20
2018-02-08T21:07:18.925Z,-4.20
2018-02-08T21:09:46.387Z,-4.20
2018-02-08T21:12:14.762Z,-4.20
2018-02-08T21:14:42.438Z,-4.20
2018-02-08T21:17:10.692Z,-4.20
2018-02-08T21:19:38.350Z,-4.30
2018-02-08T21:22:05.823Z,-4.20
2018-02-08T21:24:33.488Z,-4.30
2018-02-08T21:27:01.801Z,-4.30
2018-02-08T21:29:29.356Z,-4.30
2018-02-08T21:31:56.942Z,-4.30
2018-02-08T21:34:24.419Z,-4.30
2018-02-08T21:36:52.084Z,-4.30
2018-02-08T21:39:19.723Z,-4.30
2018-02-08T21:41:47.492Z,-4.30
2018-02-08T21:44:15.168Z,-4.40
2018-02-08T21:46:42.826Z,-4.40
2018-02-08T21:49:10.418Z,-4.50
2018-02-08T21:51:37.964Z,-4.50
2018-02-08T21:54:05.815Z,-4.50
2018-02-08T21:56:33.328Z,-4.60
2018-02-08T21:59:00.931Z,-4.60
2018-02-08T22:01:28.526Z,-4.70
2018-02-08T22:03:56.093Z,-4.70
2018-02-08T22:06:24.422Z,-4.70
2018-02-08T22:08:52.089Z,-4.70
2018-02-08T22:11:20.430Z,-4.80
2018-02-08T22:13:48.752Z,-4.80
2018-02-08T22:16:16.272Z,-4.80
2018-02-08T22:18:43.806Z,-4.80
2018-02-08T22:21:12.218Z,-4.80
2018-02-08T22:23:39.841Z,-4.80
2018-02-08T22:26:07.339Z,-4.90
2018-02-08T22:28:34.934Z,-4.90
2018-02-08T22:31:02.398Z,-5.00
2018-02-08T22:33:29.859Z,-5.00
2018-02-08T22:35:57.354Z,-5.00
2018-02-08T22:38:25.591Z,-5.10
2018-02-08T22:40:53.048Z,-5.10
2018-02-08T22:43:20.507Z,-5.10
2018-02-08T22:45:47.997Z,-5.10
2018-02-08T22:48:16.225Z,-5.10
2018-02-08T22:50:43.701Z,-5.10
2018-02-08T22:53:11.163Z,-5.10
2018-02-08T22:55:38.631Z,-5.20
2018-02-08T22:58:06.091Z,-5.20
2018-02-08T23:00:33.569Z,-5.30
2018-02-08T23:03:01.818Z,-5.30
2018-02-08T23:05:29.300Z,-5.30
2018-02-08T23:07:57.527Z,-5.40
2018-02-08T23:10:25.002Z,-5.40
2018-02-08T23:12:52.475Z,-5.40
2018-02-08T23:15:19.942Z,-5.40
2018-02-08T23:17:47.414Z,-5.40
2018-02-08T23:20:14.883Z,-5.40
2018-02-08T23:22:42.378Z,-5.50
2018-02-08T23:25:09.840Z,-5.50
2018-02-08T23:27:37.311Z,-5.50
2018-02-08T23:30:04.783Z,-5.50
2018-02-08T23:32:32.260Z,-5.60
2018-02-08T23:35:00.494Z,-5.60
2018-02-08T23:37:27.976Z,-5.60
2018-02-08T23:39:55.427Z,-5.60
2018-02-08T23:42:22.898Z,-5.60
2018-02-08T23:44:50.365Z,-5.70
2018-02-08T23:47:18.612Z,-5.70
2018-02-08T23:49:46.081Z,-5.70
2018-02-08T23:52:13.553Z,-5.70
2018-02-08T23:54:41.790Z,-5.70
2018-02-08T23:57:09.254Z,-5.80
2018-02-08T23:59:36.729Z,-5.70
